D/T METAR WX W/DIR W/SPE G/SPE TEMP DEWP
25/02/20 15:20 EGPE 251520Z 21006KT 9999 FEW012 SCT020 05/02 Q0988 SSW (210°) 6.9mph 5°C 2°C
25/02/20 14:50 EGPE 251450Z 21007KT 9999 SCT020 04/01 Q0988 SSW (210°) 8.1mph 4°C 1°C
25/02/20 14:20 EGPE 251420Z 21010KT 9999 FEW015 SCT032 05/02 Q0989 SSW (210°) 11.5mph 5°C 2°C
25/02/20 13:50 EGPE 251350Z 20009KT 9999 FEW012 SCT030 05/02 Q0989 SSW (200°) 10.4mph 5°C 2°C
25/02/20 13:20 EGPE 251320Z 21007KT 9999 FEW012 05/02 Q0989 SSW (210°) 8.1mph 5°C 2°C
25/02/20 12:50 EGPE 251250Z 21010KT 9999 FEW005 FEW020CB 04/02 Q0989 SSW (210°) 11.5mph 4°C 2°C
25/02/20 12:20 EGPE 251220Z 23005KT 9999 FEW004 FEW020CB 04/01 Q0990 SW (230°) 5.8mph 4°C 1°C
25/02/20 11:50 EGPE 251150Z 21005KT 9999 FEW004 FEW020CB 03/01 Q0990 SSW (210°) 5.8mph 3°C 1°C
25/02/20 11:20 EGPE 251120Z 22005KT 9999 FEW004 FEW015CB 03/01 Q0990 SW (220°) 5.8mph 3°C 1°C
25/02/20 10:50 EGPE 251050Z 23006KT 9999 FEW004 FEW015CB 02/01 Q0990 SW (230°) 6.9mph 2°C 1°C
25/02/20 10:20 EGPE 251020Z 22007KT 9999 FEW002 FEW015CB 01/00 Q0990 SW (220°) 8.1mph 1°C 0°C
25/02/20 09:50 EGPE 250950Z 23006KT 9999 FEW006 FEW015CB 01/M00 Q0991 SW (230°) 6.9mph 1°C 0°C
25/02/20 09:20 EGPE 250920Z 21003KT 9999 FEW006 FEW015CB 01/M00 Q0991 SSW (210°) 3.5mph 1°C 0°C
25/02/20 08:50 EGPE 250850Z 23003KT 9999 FEW006 FEW015CB M00/M01 Q0991 SW (230°) 3.5mph 0°C -1°C
25/02/20 08:20 EGPE 250820Z 00000KT 9999 FEW006 M01/M02 Q0991 N (0°) -1°C -2°C
25/02/20 07:50 EGPE 250750Z 22002KT 9999 FEW006 M01/M02 Q0991 SW (220°) 2.3mph -1°C -2°C
25/02/20 07:20 EGPE 250720Z 24004KT 9999 FEW006 M00/M01 Q0991 WSW (240°) 4.6mph 0°C -1°C
25/02/20 06:50 EGPE 250650Z 23003KT 9999 FEW004 M00/M01 Q0992 SW (230°) 3.5mph 0°C -1°C
25/02/20 06:20 EGPE 250620Z 22003KT 9999 FEW002 M00/M01 Q0992 SW (220°) 3.5mph 0°C -1°C
25/02/20 05:50 EGPE 250550Z 22004KT 9999 FEW004 M00/M01 Q0992 SW (220°) 4.6mph 0°C -1°C
25/02/20 04:50 EGPE 250450Z 20002KT 9999 FEW004 00/M01 Q0993 SSW (200°) 2.3mph 0°C -1°C
25/02/20 03:50 EGPE 250350Z 21003KT 9999 FEW004 SCT014 00/M00 Q0993 SSW (210°) 3.5mph 0°C 0°C
25/02/20 03:20 EGPE 250320Z 22003KT 9999 FEW004 SCT014 00/M00 Q0994 SW (220°) 3.5mph 0°C 0°C
25/02/20 02:50 EGPE 250250Z 22002KT 9999 FEW004 SCT014 00/00 Q0994 SW (220°) 2.3mph 0°C 0°C
25/02/20 02:20 EGPE 250220Z AUTO 22003KT 9999 OVC005/// 00/00 Q0994 SW (220°) 3.5mph 0°C 0°C
25/02/20 01:50 EGPE 250150Z AUTO 22003KT 9999 BKN006/// OVC025/// 00/00 Q0995 SW (220°) 3.5mph 0°C 0°C
25/02/20 01:20 EGPE 250120Z AUTO 22003KT 9999 FEW004/// OVC014/// 00/00 Q0995 SW (220°) 3.5mph 0°C 0°C
25/02/20 00:50 EGPE 250050Z AUTO 21003KT 9999 OVC004/// 00/00 Q0995 SSW (210°) 3.5mph 0°C 0°C
25/02/20 00:20 EGPE 250020Z AUTO 21003KT 5000 -RA OVC004/// 00/00 Q0996 -RA SSW (210°) 3.5mph 0°C 0°C
24/02/20 23:50 EGPE 242350Z AUTO 22003KT 5000 -SN BKN005/// OVC037/// 00/M00 Q0996 -SN SW (220°) 3.5mph 0°C 0°C
24/02/20 23:20 EGPE 242320Z AUTO 22003KT 4700 -RA BKN003/// OVC036/// 00/M00 Q0996 -RA SW (220°) 3.5mph 0°C 0°C
24/02/20 22:50 EGPE 242250Z AUTO 22002KT 1200 -SN BKN001/// OVC009/// 00/M00 Q0996 -SN SW (220°) 2.3mph 0°C 0°C
24/02/20 22:20 EGPE 242220Z AUTO 23002KT 1700 -SN OVC003/// 00/M00 Q0996 RESN RERA -SN RA SW (230°) 2.3mph 0°C 0°C
24/02/20 21:50 EGPE 242150Z 22003KT 4000 RASN FEW004 BKN006 00/00 Q0996 RA SN SW (220°) 3.5mph 0°C 0°C
24/02/20 21:20 EGPE 242120Z 21003KT 5000 RA FEW005 BKN006 01/01 Q0996 RA SSW (210°) 3.5mph 1°C 1°C
24/02/20 20:50 EGPE 242050Z 00000KT 7000 RA FEW005 BKN007 BKN012 02/01 Q0996 RA N (0°) 2°C 1°C
24/02/20 20:20 EGPE 242020Z 00000KT 8000 -RA FEW006 SCT007 BKN012 02/01 Q0996 -RA N (0°) 2°C 1°C
24/02/20 19:50 EGPE 241950Z 00000KT 7000 -RA FEW005 BKN007 02/01 Q0996 -RA N (0°) 2°C 1°C
24/02/20 19:20 EGPE 241920Z 05006KT 8000 -RA FEW005 BKN008 02/01 Q0996 -RA NE (50°) 6.9mph 2°C 1°C
24/02/20 18:50 EGPE 241850Z 06002KT 8000 -RA FEW006 BKN007 02/01 Q0996 -RA ENE (60°) 2.3mph 2°C 1°C
24/02/20 18:20 EGPE 241820Z 06003KT 8000 -RA FEW007 SCT008 BKN009 02/01 Q0996 -RA ENE (60°) 3.5mph 2°C 1°C
24/02/20 17:50 EGPE 241750Z VRB01KT 9000 4000S -RA FEW007 SCT008 BKN011 02/01 Q0996 -RA N (0°) 1.2mph 2°C 1°C
24/02/20 17:20 EGPE 241720Z 05004KT 9000 3000S -RA BKN007 BKN015 OVC038 02/01 Q0996 -RA NE (50°) 4.6mph 2°C 1°C
24/02/20 16:50 EGPE 241650Z 05006KT 9000 3000S -RA FEW008 SCT015 BKN034 02/01 Q0996 -RA NE (50°) 6.9mph 2°C 1°C
24/02/20 16:20 EGPE 241620Z 05007KT 7000 3000S -RA FEW006 SCT008 BKN022 02/01 Q0996 -RA NE (50°) 8.1mph 2°C 1°C
24/02/20 15:50 EGPE 241550Z 05009KT 7000 FEW006 SCT008 BKN014 02/01 Q0996 NE (50°) 10.4mph 2°C 1°C
24/02/20 15:20 EGPE 241520Z 05010KT 7000 FEW006 SCT008 BKN014 02/01 Q0996 NE (50°) 11.5mph 2°C 1°C
24/02/20 14:50 EGPE 241450Z 05011KT 7000 -RA FEW006 SCT008 BKN014 02/01 Q0997 -RA NE (50°) 12.7mph 2°C 1°C